Time;durP1;ratioP1;P1;durP2;ratioP2;P2;SDS_P1;SDS_P2;PMS_P1;PMS_P2;Temp;Humidity;BMP_temperature;BMP_pressure;BME280_temperature;BME280_humidity;BME280_pressure;Samples;Min_cycle;Max_cycle;Signal;HPM_P1;HPM_P2
2021/03/01 00:01:29;;;;;;;;;;;;;;;;;;5003681;28;1918;-66
2021/03/01 00:03:55;;;;;;;;;;;;;;;;;;5018460;28;1238;-66
2021/03/01 00:06:21;;;;;;;;;;;;;;;;;;5028009;28;808;-67
2021/03/01 00:08:46;;;;;;;;;;;;;;;;;;4998946;28;1497;-65
2021/03/01 00:11:11;;;;;;;;;;;;;;;;;;5006443;28;1560;-66
2021/03/01 00:13:37;;;;;;;;;;;;;;;;;;4994421;28;1612;-68
2021/03/01 00:16:02;;;;;;;;;;;;;;;;;;4987853;28;796;-66
2021/03/01 00:18:28;;;;;;;;;;;;;;;;;;4987159;28;836;-65
2021/03/01 00:20:53;;;;;;;;;;;;;;;;;;5000389;28;1938;-66
2021/03/01 00:23:18;;;;;;;;;;;;;;;;;;5003364;28;1591;-67
2021/03/01 00:25:44;;;;;;;;;;;;;;;;;;5001494;28;1431;-66
2021/03/01 00:28:10;;;;;;;;;;;;;;;;;;4987796;28;824;-66
2021/03/01 00:30:35;;;;;;;;;;;;;;;;;;4988470;28;851;-65
2021/03/01 00:33:01;;;;;;;;;;;;;;;;;;4993029;28;1585;-66
2021/03/01 00:35:27;;;;;;;;;;;;;;;;;;5004544;28;1462;-65
2021/03/01 00:37:52;;;;;;;;;;;;;;;;;;4996571;28;1483;-66
2021/03/01 00:40:18;;;;;;;;;;;;;;;;;;4996198;28;2000;-64
2021/03/01 00:42:44;;;;;;;;;;;;;;;;;;5003665;28;1648;-67
2021/03/01 00:45:09;;;;;;;;;;;;;;;;;;5002320;28;1488;-65
2021/03/01 00:47:35;;;;;;;;;;;;;;;;;;5008139;28;972;-66
2021/03/01 00:50:00;;;;;;;;;;;;;;;;;;5006802;28;839;-65
2021/03/01 00:52:25;;;;;;;;;;;;;;;;;;5007896;28;859;-65
2021/03/01 00:54:51;;;;;;;;;;;;;;;;;;5004676;28;1383;-65
2021/03/01 00:57:16;;;;;;;;;;;;;;;;;;4990557;28;1448;-65
2021/03/01 00:59:42;;;;;;;;;;;;;;;;;;4993615;28;1902;-64
2021/03/01 01:02:07;;;;;;;;;;;;;;;;;;5006151;28;799;-67
2021/03/01 01:04:32;;;;;;;;;;;;;;;;;;5023634;28;1138;-65
2021/03/01 01:06:58;;;;;;;;;;;;;;;;;;5031934;28;874;-66
2021/03/01 01:09:23;;;;;;;;;;;;;;;;;;5013872;28;1484;-67
2021/03/01 01:11:48;;;;;;;;;;;;;;;;;;5013915;28;895;-67
2021/03/01 01:14:14;;;;;;;;;;;;;;;;;;5007606;28;1628;-66
2021/03/01 01:16:40;;;;;;;;;;;;;;;;;;4994242;28;903;-66
2021/03/01 01:19:07;;;;;;;;;;;;;;;;;;5026081;28;847;-66
2021/03/01 01:21:32;;;;;;;;;;;;;;;;;;4995818;28;1894;-66
2021/03/01 01:23:58;;;;;;;;;;;;;;;;;;4992366;28;1564;-66
2021/03/01 01:26:23;;;;;;;;;;;;;;;;;;4994010;28;911;-66
2021/03/01 01:28:49;;;;;;;;;;;;;;;;;;5011442;28;1457;-66
2021/03/01 01:31:14;;;;;;;;;;;;;;;;;;4993439;28;1478;-66
2021/03/01 01:33:39;;;;;;;;;;;;;;;;;;4992913;28;1626;-67
2021/03/01 01:36:05;;;;;;;;;;;;;;;;;;4997755;28;2379;-67
2021/03/01 01:38:30;;;;;;;;;;;;;;;;;;5004308;28;1454;-66
2021/03/01 01:40:55;;;;;;;;;;;;;;;;;;5005026;28;1890;-66
2021/03/01 01:43:21;;;;;;;;;;;;;;;;;;5006286;28;1365;-66
2021/03/01 01:45:46;;;;;;;;;;;;;;;;;;4992413;28;1487;-66
2021/03/01 01:48:11;;;;;;;;;;;;;;;;;;4991785;28;1641;-66
2021/03/01 01:50:37;;;;;;;;;;;;;;;;;;4996859;28;1551;-68
2021/03/01 01:53:03;;;;;;;;;;;;;;;;;;5012983;28;1140;-65
2021/03/01 01:55:29;;;;;;;;;;;;;;;;;;4992224;28;1501;-66
2021/03/01 01:57:54;;;;;;;;;;;;;;;;;;4993441;28;1567;-66
2021/03/01 02:01:06;;;;;;;;;;;;;;;;;;5003541;28;1996;-65
2021/03/01 02:03:25;;;;;;;;;;;;;;;;;;5016951;28;1825;-67
2021/03/01 02:05:51;;;;;;;;;;;;;;;;;;4997891;28;1406;-66
2021/03/01 02:08:22;;;;;;;;;;;;;;;;;;4993440;28;1134;-65
2021/03/01 02:10:53;;;;;;;;;;;;;;;;;;4998482;28;2566;-65
2021/03/01 02:13:35;;;;;;;;;;;;;;;;;;5007265;28;1574;-66
2021/03/01 02:16:02;;;;;;;;;;;;;;;;;;5010229;28;1583;-65
2021/03/01 02:18:27;;;;;;;;;;;;;;;;;;5009027;28;907;-66
2021/03/01 02:20:53;;;;;;;;;;;;;;;;;;5009117;28;1898;-65
2021/03/01 02:23:19;;;;;;;;;;;;;;;;;;4996323;28;1601;-65
2021/03/01 02:25:49;;;;;;;;;;;;;;;;;;4989418;28;1707;-65
2021/03/01 02:28:17;;;;;;;;;;;;;;;;;;4998031;28;1583;-66
2021/03/01 02:30:54;;;;;;;;;;;;;;;;;;4993945;28;1572;-65
2021/03/01 02:33:31;;;;;;;;;;;;;;;;;;4989332;28;871;-66
2021/03/01 02:35:59;;;;;;;;;;;;;;;;;;4989554;28;1553;-65
2021/03/01 02:38:26;;;;;;;;;;;;;;;;;;5002396;28;1312;-65
2021/03/01 02:40:53;;;;;;;;;;;;;;;;;;5007526;28;1906;-65
2021/03/01 02:43:19;;;;;;;;;;;;;;;;;;5006151;28;1523;-65
2021/03/01 02:45:45;;;;;;;;;;;;;;;;;;5007688;28;1392;-65
2021/03/01 02:48:11;;;;;;;;;;;;;;;;;;5005175;28;1579;-65
2021/03/01 02:50:38;;;;;;;;;;;;;;;;;;5001114;28;1477;-66
2021/03/01 02:53:03;;;;;;;;;;;;;;;;;;4992986;28;1634;-65
2021/03/01 02:55:29;;;;;;;;;;;;;;;;;;4995659;28;1719;-64
2021/03/01 02:57:56;;;;;;;;;;;;;;;;;;5037325;28;1617;-65
2021/03/01 03:00:22;;;;;;;;;;;;;;;;;;5007228;28;2005;-64
2021/03/01 03:02:48;;;;;;;;;;;;;;;;;;5009375;28;1446;-65
2021/03/01 03:05:13;;;;;;;;;;;;;;;;;;5028014;28;812;-65
2021/03/01 03:07:40;;;;;;;;;;;;;;;;;;5028161;28;879;-64
2021/03/01 03:10:07;;;;;;;;;;;;;;;;;;5013408;28;1654;-64
2021/03/01 03:12:32;;;;;;;;;;;;;;;;;;4990417;28;851;-64
2021/03/01 03:15:00;;;;;;;;;;;;;;;;;;5001254;28;910;-66
2021/03/01 03:17:27;;;;;;;;;;;;;;;;;;5007983;28;1268;-66
2021/03/01 03:19:52;;;;;;;;;;;;;;;;;;5009203;28;1906;-65
2021/03/01 03:22:17;;;;;;;;;;;;;;;;;;5001645;28;1730;-66
2021/03/01 03:24:44;;;;;;;;;;;;;;;;;;5008684;28;958;-66
2021/03/01 03:27:09;;;;;;;;;;;;;;;;;;5001556;28;1400;-66
2021/03/01 03:29:34;;;;;;;;;;;;;;;;;;5039221;28;1634;-66
2021/03/01 03:32:00;;;;;;;;;;;;;;;;;;5006708;28;1492;-66
2021/03/01 03:34:26;;;;;;;;;;;;;;;;;;5006342;28;1521;-65
2021/03/01 03:37:12;;;;;;;;;;;;;;;;;;5003980;28;1575;-66
2021/03/01 03:39:43;;;;;;;;;;;;;;;;;;5008398;28;1969;-66
2021/03/01 03:42:09;;;;;;;;;;;;;;;;;;5003378;28;1710;-66
2021/03/01 03:44:36;;;;;;;;;;;;;;;;;;4991630;28;1312;-65
2021/03/01 03:47:04;;;;;;;;;;;;;;;;;;5007104;28;863;-66
2021/03/01 03:49:30;;;;;;;;;;;;;;;;;;5007129;28;911;-65
2021/03/01 03:51:56;;;;;;;;;;;;;;;;;;4999644;28;1591;-66
2021/03/01 03:54:24;;;;;;;;;;;;;;;;;;4987618;28;1574;-66
2021/03/01 03:56:54;;;;;;;;;;;;;;;;;;4993214;28;1632;-66
2021/03/01 03:59:21;;;;;;;;;;;;;;;;;;5007430;28;1541;-66
2021/03/01 04:01:50;;;;;;;;;;;;;;;;;;5007104;28;1903;-65
2021/03/01 04:04:17;;;;;;;;;;;;;;;;;;5021297;28;1087;-66
2021/03/01 04:06:43;;;;;;;;;;;;;;;;;;5008334;28;1438;-66
2021/03/01 04:09:09;;;;;;;;;;;;;;;;;;5000640;28;1549;-65
2021/03/01 04:11:35;;;;;;;;;;;;;;;;;;4992318;28;1473;-65
2021/03/01 04:14:01;;;;;;;;;;;;;;;;;;4987205;28;1572;-66
2021/03/01 04:16:28;;;;;;;;;;;;;;;;;;4989996;28;1396;-65
2021/03/01 04:18:56;;;;;;;;;;;;;;;;;;4989371;28;1659;-65
2021/03/01 04:21:22;;;;;;;;;;;;;;;;;;4992481;28;1886;-64
2021/03/01 04:23:48;;;;;;;;;;;;;;;;;;4987129;28;1412;-65
2021/03/01 04:26:14;;;;;;;;;;;;;;;;;;5001503;28;1415;-64
2021/03/01 04:28:40;;;;;;;;;;;;;;;;;;5004931;28;1541;-66
2021/03/01 04:31:07;;;;;;;;;;;;;;;;;;5007629;28;876;-65
2021/03/01 04:33:34;;;;;;;;;;;;;;;;;;5007251;28;934;-66
2021/03/01 04:36:00;;;;;;;;;;;;;;;;;;4999823;28;1489;-67
2021/03/01 04:38:25;;;;;;;;;;;;;;;;;;4986416;28;1634;-66
2021/03/01 04:40:52;;;;;;;;;;;;;;;;;;4997036;28;1890;-65
2021/03/01 04:43:18;;;;;;;;;;;;;;;;;;4991127;28;1576;-65
2021/03/01 04:45:44;;;;;;;;;;;;;;;;;;4999545;28;1508;-66
2021/03/01 04:48:10;;;;;;;;;;;;;;;;;;5003090;28;1445;-66
2021/03/01 04:50:36;;;;;;;;;;;;;;;;;;5004538;28;1582;-66
2021/03/01 04:53:01;;;;;;;;;;;;;;;;;;4986920;28;907;-65
2021/03/01 04:55:27;;;;;;;;;;;;;;;;;;4986973;28;983;-64
2021/03/01 04:57:54;;;;;;;;;;;;;;;;;;4987440;28;1723;-65
2021/03/01 05:00:20;;;;;;;;;;;;;;;;;;4987639;28;1961;-65
2021/03/01 05:02:46;;;;;;;;;;;;;;;;;;5021297;28;1180;-64
2021/03/01 05:05:11;;;;;;;;;;;;;;;;;;5019379;28;1657;-65
2021/03/01 05:07:37;;;;;;;;;;;;;;;;;;5004772;28;1466;-67
2021/03/01 05:10:06;;;;;;;;;;;;;;;;;;5006937;28;863;-64
2021/03/01 05:12:31;;;;;;;;;;;;;;;;;;5006904;28;808;-65
2021/03/01 05:14:56;;;;;;;;;;;;;;;;;;5003589;28;1647;-66
2021/03/01 05:17:22;;;;;;;;;;;;;;;;;;5003986;28;1571;-65
2021/03/01 05:19:47;;;;;;;;;;;;;;;;;;4997516;28;1953;-64
2021/03/01 05:22:12;;;;;;;;;;;;;;;;;;5000602;28;1457;-64
2021/03/01 05:24:38;;;;;;;;;;;;;;;;;;4986137;28;1631;-64
2021/03/01 05:27:03;;;;;;;;;;;;;;;;;;4987059;28;824;-64
2021/03/01 05:29:29;;;;;;;;;;;;;;;;;;4986158;28;1689;-65
2021/03/01 05:31:54;;;;;;;;;;;;;;;;;;5006590;28;843;-64
2021/03/01 05:34:19;;;;;;;;;;;;;;;;;;5007254;28;1015;-65
2021/03/01 05:36:45;;;;;;;;;;;;;;;;;;5007390;28;1141;-65
2021/03/01 05:39:10;;;;;;;;;;;;;;;;;;4991945;28;1391;-65
2021/03/01 05:41:39;;;;;;;;;;;;;;;;;;4988008;28;1895;-64
2021/03/01 05:44:05;;;;;;;;;;;;;;;;;;4986751;28;1918;-64
2021/03/01 05:46:32;;;;;;;;;;;;;;;;;;5000026;28;1603;-64
2021/03/01 05:48:58;;;;;;;;;;;;;;;;;;4992918;28;1473;-64
2021/03/01 05:51:24;;;;;;;;;;;;;;;;;;5005045;28;834;-64
2021/03/01 05:53:51;;;;;;;;;;;;;;;;;;4999650;28;1426;-64
2021/03/01 05:56:17;;;;;;;;;;;;;;;;;;4991576;28;867;-63
2021/03/01 05:58:44;;;;;;;;;;;;;;;;;;4989409;28;1600;-65
2021/03/01 06:01:09;;;;;;;;;;;;;;;;;;4990327;28;1989;-64
2021/03/01 06:03:35;;;;;;;;;;;;;;;;;;5038747;28;1849;-64
2021/03/01 06:06:01;;;;;;;;;;;;;;;;;;5010329;28;1383;-65
2021/03/01 06:08:27;;;;;;;;;;;;;;;;;;4990831;28;855;-64
2021/03/01 06:11:00;;;;;;;;;;;;;;;;;;4989460;28;1059;-64
2021/03/01 06:13:26;;;;;;;;;;;;;;;;;;5000499;28;1447;-64
2021/03/01 06:15:55;;;;;;;;;;;;;;;;;;5003721;28;1600;-64
2021/03/01 06:18:21;;;;;;;;;;;;;;;;;;5006643;28;1655;-64
2021/03/01 06:20:46;;;;;;;;;;;;;;;;;;5005241;28;1886;-63
2021/03/01 06:23:12;;;;;;;;;;;;;;;;;;5008649;28;898;-64
2021/03/01 06:25:37;;;;;;;;;;;;;;;;;;5008856;28;843;-65
2021/03/01 06:28:04;;;;;;;;;;;;;;;;;;5003897;28;1655;-65
2021/03/01 06:30:31;;;;;;;;;;;;;;;;;;5008396;28;1651;-65
2021/03/01 06:33:07;;;;;;;;;;;;;;;;;;5008427;28;823;-65
2021/03/01 06:35:41;;;;;;;;;;;;;;;;;;5010021;28;859;-65
2021/03/01 06:38:21;;;;;;;;;;;;;;;;;;5011051;28;919;-65
2021/03/01 06:41:05;;;;;;;;;;;;;;;;;;5009179;28;1895;-66
2021/03/01 06:43:31;;;;;;;;;;;;;;;;;;5007677;28;1385;-65
2021/03/01 06:46:10;;;;;;;;;;;;;;;;;;5001157;28;1120;-65
2021/03/01 06:48:36;;;;;;;;;;;;;;;;;;5009376;28;915;-65
2021/03/01 06:51:01;;;;;;;;;;;;;;;;;;4996202;28;1461;-64
2021/03/01 06:53:27;;;;;;;;;;;;;;;;;;5001520;28;1515;-65
2021/03/01 06:55:52;;;;;;;;;;;;;;;;;;4989618;28;1553;-65
2021/03/01 06:58:18;;;;;;;;;;;;;;;;;;4988644;28;656;-66
2021/03/01 07:00:44;;;;;;;;;;;;;;;;;;4988452;28;1989;-65
2021/03/01 07:03:22;;;;;;;;;;;;;;;;;;4998746;28;1103;-66
2021/03/01 07:05:58;;;;;;;;;;;;;;;;;;5013269;28;1463;-65
2021/03/01 07:08:44;;;;;;;;;;;;;;;;;;4998362;28;1566;-64
2021/03/01 07:11:24;;;;;;;;;;;;;;;;;;5003235;28;1423;-66
2021/03/01 07:13:49;;;;;;;;;;;;;;;;;;4993648;28;1559;-67
2021/03/01 07:16:15;;;;;;;;;;;;;;;;;;5003968;28;1603;-66
2021/03/01 07:18:41;;;;;;;;;;;;;;;;;;4995916;28;1619;-66
2021/03/01 07:21:09;;;;;;;;;;;;;;;;;;4997326;28;1914;-65
2021/03/01 07:23:36;;;;;;;;;;;;;;;;;;5004638;28;1438;-67
2021/03/01 07:26:01;;;;;;;;;;;;;;;;;;4997617;28;1548;-66
2021/03/01 07:28:30;;;;;;;;;;;;;;;;;;4996189;28;1559;-67
2021/03/01 07:30:56;;;;;;;;;;;;;;;;;;5007581;28;1166;-65
2021/03/01 07:33:21;;;;;;;;;;;;;;;;;;5017053;28;1419;-66
2021/03/01 07:35:46;;;;;;;;;;;;;;;;;;5025962;28;1091;-67
2021/03/01 07:38:12;;;;;;;;;;;;;;;;;;5026726;28;1057;-66
2021/03/01 07:40:37;;;;;;;;;;;;;;;;;;5010173;28;1973;-65
2021/03/01 07:43:03;;;;;;;;;;;;;;;;;;5011418;28;1089;-66
2021/03/01 07:45:29;;;;;;;;;;;;;;;;;;5008213;28;819;-66
2021/03/01 07:47:55;;;;;;;;;;;;;;;;;;4995179;28;1478;-66
2021/03/01 07:50:34;;;;;;;;;;;;;;;;;;4990531;28;1378;-67
2021/03/01 07:52:59;;;;;;;;;;;;;;;;;;4987121;28;1255;-66
2021/03/01 07:55:25;;;;;;;;;;;;;;;;;;4997783;28;1408;-67
2021/03/01 07:58:03;;;;;;;;;;;;;;;;;;5004783;28;1556;-66
2021/03/01 08:00:30;;;;;;;;;;;;;;;;;;5004503;28;1968;-67
2021/03/01 08:02:56;;;;;;;;;;;;;;;;;;5006554;28;1559;-66
2021/03/01 08:05:25;;;;;;;;;;;;;;;;;;5000334;28;1523;-67
2021/03/01 08:07:50;;;;;;;;;;;;;;;;;;5007527;28;902;-67
2021/03/01 08:10:29;;;;;;;;;;;;;;;;;;5002737;28;1501;-67
2021/03/01 08:13:05;;;;;;;;;;;;;;;;;;5001004;28;1470;-66
2021/03/01 08:15:32;;;;;;;;;;;;;;;;;;4986252;28;1620;-70
2021/03/01 08:17:58;;;;;;;;;;;;;;;;;;4999774;28;1617;-71
2021/03/01 08:20:24;;;;;;;;;;;;;;;;;;5002638;28;2005;-68
2021/03/01 08:23:04;;;;;;;;;;;;;;;;;;5005098;28;1171;-69
2021/03/01 08:25:41;;;;;;;;;;;;;;;;;;5004909;28;1628;-70
2021/03/01 08:28:07;;;;;;;;;;;;;;;;;;5006882;28;1518;-69
2021/03/01 08:30:33;;;;;;;;;;;;;;;;;;5009412;28;1804;-69
2021/03/01 08:33:08;;;;;;;;;;;;;;;;;;5002270;28;1510;-69
2021/03/01 08:35:34;;;;;;;;;;;;;;;;;;5027686;28;855;-73
2021/03/01 08:38:00;;;;;;;;;;;;;;;;;;5019570;28;992;-75
2021/03/01 08:40:25;;;;;;;;;;;;;;;;;;5005811;28;1890;-72
2021/03/01 08:43:02;;;;;;;;;;;;;;;;;;5004210;28;1580;-73
2021/03/01 08:45:37;;;;;;;;;;;;;;;;;;5003350;28;1483;-73
2021/03/01 08:48:06;;;;;;;;;;;;;;;;;;5004484;28;1483;-73
2021/03/01 08:50:34;;;;;;;;;;;;;;;;;;5001278;28;1469;-73
2021/03/01 08:52:59;;;;;;;;;;;;;;;;;;4992358;28;1531;-74
2021/03/01 08:55:25;;;;;;;;;;;;;;;;;;4985443;28;1626;-73
2021/03/01 08:57:58;;;;;;;;;;;;;;;;;;5018072;28;1428;-73
2021/03/01 09:00:24;;;;;;;;;;;;;;;;;;4998693;28;1985;-74
2021/03/01 09:02:49;;;;;;;;;;;;;;;;;;5002352;28;1508;-74
2021/03/01 09:05:18;;;;;;;;;;;;;;;;;;5003385;28;1559;-69
2021/03/01 09:07:44;;;;;;;;;;;;;;;;;;5006650;28;852;-73
2021/03/01 09:10:11;;;;;;;;;;;;;;;;;;5005419;28;851;-74
2021/03/01 09:12:36;;;;;;;;;;;;;;;;;;4999960;28;1511;-75
2021/03/01 09:15:02;;;;;;;;;;;;;;;;;;4983675;28;1618;-74
2021/03/01 09:17:28;;;;;;;;;;;;;;;;;;4991922;28;1417;-74
2021/03/01 09:19:56;;;;;;;;;;;;;;;;;;4995725;28;1976;-74
2021/03/01 09:22:22;;;;;;;;;;;;;;;;;;4994289;28;1712;-73
2021/03/01 09:24:48;;;;;;;;;;;;;;;;;;4997825;28;1503;-73
2021/03/01 09:27:14;;;;;;;;;;;;;;;;;;4986484;28;1465;-74
2021/03/01 09:29:40;;;;;;;;;;;;;;;;;;5034235;28;1765;-74
2021/03/01 09:32:05;;;;;;;;;;;;;;;;;;5035061;28;1422;-74
2021/03/01 09:34:31;;;;;;;;;;;;;;;;;;4990225;28;1342;-75
2021/03/01 09:36:56;;;;;;;;;;;;;;;;;;4994072;28;1513;-75
2021/03/01 09:39:25;;;;;;;;;;;;;;;;;;4999609;28;1493;-75
2021/03/01 09:41:50;;;;;;;;;;;;;;;;;;5020558;28;1914;-76
2021/03/01 09:44:26;;;;;;;;;;;;;;;;;;5002628;28;1409;-72
2021/03/01 09:46:52;;;;;;;;;;;;;;;;;;5008613;28;1568;-76
2021/03/01 09:49:18;;;;;;;;;;;;;;;;;;5018498;28;1572;-75
2021/03/01 09:51:44;;;;;;;;;;;;;;;;;;5006148;28;1582;-73
2021/03/01 09:54:10;;;;;;;;;;;;;;;;;;5004832;28;1517;-73
2021/03/01 09:56:39;;;;;;;;;;;;;;;;;;5007140;28;1391;-73
2021/03/01 09:59:05;;;;;;;;;;;;;;;;;;5004182;28;1664;-74
2021/03/01 10:01:30;;;;;;;;;;;;;;;;;;4997841;28;1898;-75
2021/03/01 10:03:55;;;;;;;;;;;;;;;;;;5011495;28;1566;-75
2021/03/01 10:06:38;;;;;;;;;;;;;;;;;;4997970;28;1537;-74
2021/03/01 10:09:05;;;;;;;;;;;;;;;;;;5003194;28;1666;-75
2021/03/01 10:11:30;;;;;;;;;;;;;;;;;;4989749;28;1610;-74
2021/03/01 10:14:23;;;;;;;;;;;;;;;;;;4990950;28;1778;-73
2021/03/01 10:16:49;;;;;;;;;;;;;;;;;;5024809;28;1461;-76
2021/03/01 10:19:14;;;;;;;;;;;;;;;;;;4989013;28;1404;-73
2021/03/01 10:21:40;;;;;;;;;;;;;;;;;;5001998;28;1902;-75
2021/03/01 10:24:07;;;;;;;;;;;;;;;;;;4992860;28;1625;-72
2021/03/01 10:26:33;;;;;;;;;;;;;;;;;;4998732;28;1516;-73
2021/03/01 10:29:02;;;;;;;;;;;;;;;;;;4998729;28;1528;-75
2021/03/01 10:31:38;;;;;;;;;;;;;;;;;;5005628;28;1689;-72
2021/03/01 10:34:10;;;;;;;;;;;;;;;;;;5026165;28;1614;-74
2021/03/01 10:36:47;;;;;;;;;;;;;;;;;;4998140;28;1614;-73
2021/03/01 10:39:21;;;;;;;;;;;;;;;;;;5017900;28;1209;-71
2021/03/01 10:41:48;;;;;;;;;;;;;;;;;;4988771;28;1959;-72
2021/03/01 10:44:14;;;;;;;;;;;;;;;;;;5003121;28;1563;-71
2021/03/01 10:46:39;;;;;;;;;;;;;;;;;;4989547;28;899;-71
2021/03/01 10:49:23;;;;;;;;;;;;;;;;;;5011354;28;1084;-72
2021/03/01 10:51:50;;;;;;;;;;;;;;;;;;5029478;28;827;-71
2021/03/01 10:54:15;;;;;;;;;;;;;;;;;;5010764;28;1436;-71
2021/03/01 10:56:41;;;;;;;;;;;;;;;;;;5003665;28;1495;-72
2021/03/01 10:59:06;;;;;;;;;;;;;;;;;;5009509;28;1991;-71
2021/03/01 11:01:32;;;;;;;;;;;;;;;;;;5007495;28;1911;-71
2021/03/01 11:03:58;;;;;;;;;;;;;;;;;;5021483;28;1470;-70
2021/03/01 11:06:23;;;;;;;;;;;;;;;;;;4999536;28;1370;-72
2021/03/01 11:08:49;;;;;;;;;;;;;;;;;;5003274;28;932;-72
2021/03/01 11:11:14;;;;;;;;;;;;;;;;;;4998286;28;1746;-70
2021/03/01 11:13:41;;;;;;;;;;;;;;;;;;5034363;28;1401;-70
2021/03/01 11:16:06;;;;;;;;;;;;;;;;;;4998740;28;1662;-70
2021/03/01 11:18:33;;;;;;;;;;;;;;;;;;5006719;28;832;-70
2021/03/01 11:20:58;;;;;;;;;;;;;;;;;;5005326;28;1910;-72
2021/03/01 11:23:24;;;;;;;;;;;;;;;;;;4999697;28;823;-71
2021/03/01 11:25:49;;;;;;;;;;;;;;;;;;5002180;28;1709;-71
2021/03/01 11:28:14;;;;;;;;;;;;;;;;;;4990459;28;1446;-70
2021/03/01 11:30:40;;;;;;;;;;;;;;;;;;5000908;28;1365;-71
2021/03/01 11:33:07;;;;;;;;;;;;;;;;;;5023672;28;1087;-71
2021/03/01 11:35:33;;;;;;;;;;;;;;;;;;5026841;28;1369;-71
2021/03/01 11:37:58;;;;;;;;;;;;;;;;;;5026401;28;1481;-72
2021/03/01 11:40:23;;;;;;;;;;;;;;;;;;5001331;28;1967;-72
2021/03/01 11:42:49;;;;;;;;;;;;;;;;;;4995807;28;1774;-72
2021/03/01 11:45:15;;;;;;;;;;;;;;;;;;5004713;28;1685;-72
2021/03/01 11:47:40;;;;;;;;;;;;;;;;;;5040655;28;1515;-74
2021/03/01 11:50:06;;;;;;;;;;;;;;;;;;5007076;28;1238;-70
2021/03/01 11:52:31;;;;;;;;;;;;;;;;;;5004068;28;1484;-71
2021/03/01 11:54:58;;;;;;;;;;;;;;;;;;5003603;28;1499;-71
2021/03/01 11:57:25;;;;;;;;;;;;;;;;;;5003590;28;1676;-71
2021/03/01 11:59:51;;;;;;;;;;;;;;;;;;4993740;28;1989;-70
2021/03/01 12:02:16;;;;;;;;;;;;;;;;;;5019053;28;1574;-71
2021/03/01 12:04:41;;;;;;;;;;;;;;;;;;4989729;28;1470;-71
2021/03/01 12:07:07;;;;;;;;;;;;;;;;;;4998749;28;1673;-70
2021/03/01 12:09:32;;;;;;;;;;;;;;;;;;5001408;28;1492;-71
2021/03/01 12:11:58;;;;;;;;;;;;;;;;;;5004133;28;1563;-70
2021/03/01 12:14:23;;;;;;;;;;;;;;;;;;4989396;28;1545;-71
2021/03/01 12:16:49;;;;;;;;;;;;;;;;;;5001708;28;935;-71
2021/03/01 12:19:14;;;;;;;;;;;;;;;;;;4989075;28;828;-70
2021/03/01 12:21:39;;;;;;;;;;;;;;;;;;4996235;28;1886;-72
2021/03/01 12:24:05;;;;;;;;;;;;;;;;;;4996669;28;1430;-71
2021/03/01 12:26:30;;;;;;;;;;;;;;;;;;4999270;28;1637;-70
2021/03/01 12:28:57;;;;;;;;;;;;;;;;;;4988291;28;1474;-70
2021/03/01 12:31:22;;;;;;;;;;;;;;;;;;5017882;28;1485;-69
2021/03/01 12:33:47;;;;;;;;;;;;;;;;;;5004985;28;1567;-74
2021/03/01 12:36:13;;;;;;;;;;;;;;;;;;4995001;28;1631;-74
2021/03/01 12:38:38;;;;;;;;;;;;;;;;;;5032951;28;824;-73
2021/03/01 12:41:03;;;;;;;;;;;;;;;;;;5002642;28;1965;-74
2021/03/01 12:43:29;;;;;;;;;;;;;;;;;;4999899;28;2612;-69
2021/03/01 12:45:55;;;;;;;;;;;;;;;;;;4997453;28;1552;-68
2021/03/01 12:48:21;;;;;;;;;;;;;;;;;;4985764;28;1786;-70
2021/03/01 12:50:46;;;;;;;;;;;;;;;;;;5031003;28;1842;-70
2021/03/01 12:53:12;;;;;;;;;;;;;;;;;;4994996;28;895;-71
2021/03/01 12:55:37;;;;;;;;;;;;;;;;;;5026281;28;886;-71
2021/03/01 12:58:02;;;;;;;;;;;;;;;;;;4985595;28;1418;-71
2021/03/01 13:00:28;;;;;;;;;;;;;;;;;;4986549;28;1890;-73
2021/03/01 13:02:55;;;;;;;;;;;;;;;;;;4995096;28;1837;-71
2021/03/01 13:05:20;;;;;;;;;;;;;;;;;;5034618;28;1614;-70
2021/03/01 13:07:46;;;;;;;;;;;;;;;;;;5001431;28;1381;-71
2021/03/01 13:10:12;;;;;;;;;;;;;;;;;;5006569;28;601;-72
2021/03/01 13:12:37;;;;;;;;;;;;;;;;;;5007137;28;974;-71
2021/03/01 13:15:04;;;;;;;;;;;;;;;;;;5006964;28;910;-71
2021/03/01 13:17:29;;;;;;;;;;;;;;;;;;5005040;28;1500;-71
2021/03/01 13:19:55;;;;;;;;;;;;;;;;;;5007218;28;1882;-72
2021/03/01 13:22:20;;;;;;;;;;;;;;;;;;5006446;28;953;-70
2021/03/01 13:24:45;;;;;;;;;;;;;;;;;;5000238;28;1754;-72
2021/03/01 13:27:16;;;;;;;;;;;;;;;;;;4995353;28;1548;-74
2021/03/01 13:29:41;;;;;;;;;;;;;;;;;;4997438;28;1422;-73
2021/03/01 13:32:06;;;;;;;;;;;;;;;;;;5006638;28;910;-79
2021/03/01 13:34:32;;;;;;;;;;;;;;;;;;5006337;28;628;-73
2021/03/01 13:36:57;;;;;;;;;;;;;;;;;;5004806;28;1458;-73
2021/03/01 13:39:23;;;;;;;;;;;;;;;;;;5004212;28;1326;-73
2021/03/01 13:41:48;;;;;;;;;;;;;;;;;;4998468;28;2389;-73
2021/03/01 13:44:13;;;;;;;;;;;;;;;;;;4985502;28;1564;-73
2021/03/01 13:46:39;;;;;;;;;;;;;;;;;;5029971;28;1539;-74
2021/03/01 13:49:04;;;;;;;;;;;;;;;;;;5003968;28;1390;-73
2021/03/01 13:51:29;;;;;;;;;;;;;;;;;;5006047;28;815;-73
2021/03/01 13:53:55;;;;;;;;;;;;;;;;;;5005563;28;812;-73
2021/03/01 13:56:20;;;;;;;;;;;;;;;;;;5009415;28;1232;-73
2021/03/01 13:58:45;;;;;;;;;;;;;;;;;;5004882;28;1355;-73
2021/03/01 14:01:11;;;;;;;;;;;;;;;;;;4987924;28;1914;-74
2021/03/01 14:03:36;;;;;;;;;;;;;;;;;;5010566;28;1520;-74
2021/03/01 14:06:02;;;;;;;;;;;;;;;;;;5005426;28;1479;-74
2021/03/01 14:08:27;;;;;;;;;;;;;;;;;;5000595;28;925;-73
2021/03/01 14:10:52;;;;;;;;;;;;;;;;;;4998896;28;964;-74
2021/03/01 14:13:18;;;;;;;;;;;;;;;;;;5036966;28;1457;-72
2021/03/01 14:15:43;;;;;;;;;;;;;;;;;;5010538;28;848;-73
2021/03/01 14:18:09;;;;;;;;;;;;;;;;;;5008756;28;1546;-74
2021/03/01 14:20:34;;;;;;;;;;;;;;;;;;5030971;28;1996;-74
2021/03/01 14:22:59;;;;;;;;;;;;;;;;;;5009903;28;864;-73
2021/03/01 14:25:25;;;;;;;;;;;;;;;;;;5009855;28;811;-73
2021/03/01 14:27:51;;;;;;;;;;;;;;;;;;5003233;28;1614;-73
2021/03/01 14:30:16;;;;;;;;;;;;;;;;;;5007159;28;1626;-73
2021/03/01 14:32:41;;;;;;;;;;;;;;;;;;5003577;28;1381;-73
2021/03/01 14:35:08;;;;;;;;;;;;;;;;;;5004900;28;1420;-72
2021/03/01 14:37:33;;;;;;;;;;;;;;;;;;5008410;28;1223;-72
2021/03/01 14:39:58;;;;;;;;;;;;;;;;;;5007718;28;2005;-72
2021/03/01 14:42:24;;;;;;;;;;;;;;;;;;5005355;28;1455;-67
2021/03/01 14:44:50;;;;;;;;;;;;;;;;;;5007684;28;1602;-72
2021/03/01 14:47:16;;;;;;;;;;;;;;;;;;5006994;28;1478;-72
2021/03/01 14:49:41;;;;;;;;;;;;;;;;;;5003183;28;1511;-73
2021/03/01 14:52:07;;;;;;;;;;;;;;;;;;5007033;28;1418;-71
2021/03/01 14:54:32;;;;;;;;;;;;;;;;;;5004554;28;1468;-74
2021/03/01 14:56:58;;;;;;;;;;;;;;;;;;5006978;28;1334;-74
2021/03/01 14:59:23;;;;;;;;;;;;;;;;;;5002557;28;1482;-73
2021/03/01 15:01:49;;;;;;;;;;;;;;;;;;5006290;28;1976;-74
2021/03/01 15:04:14;;;;;;;;;;;;;;;;;;5006060;28;1296;-73
2021/03/01 15:06:40;;;;;;;;;;;;;;;;;;4992373;28;1648;-74
2021/03/01 15:09:06;;;;;;;;;;;;;;;;;;4995546;28;1170;-72
2021/03/01 15:11:32;;;;;;;;;;;;;;;;;;4996946;28;1250;-74
2021/03/01 15:13:57;;;;;;;;;;;;;;;;;;4993864;28;1602;-73
2021/03/01 15:16:23;;;;;;;;;;;;;;;;;;4996348;28;1162;-75
2021/03/01 15:18:48;;;;;;;;;;;;;;;;;;4996754;28;1188;-73
2021/03/01 15:21:14;;;;;;;;;;;;;;;;;;4996247;28;1891;-73
2021/03/01 15:23:39;;;;;;;;;;;;;;;;;;4996579;28;1249;-73
2021/03/01 15:26:06;;;;;;;;;;;;;;;;;;4997333;28;1200;-73
2021/03/01 15:28:31;;;;;;;;;;;;;;;;;;5000948;28;1161;-67
2021/03/01 15:30:58;;;;;;;;;;;;;;;;;;5011272;28;1663;-71
2021/03/01 15:33:24;;;;;;;;;;;;;;;;;;5002394;28;1308;-71
2021/03/01 15:35:49;;;;;;;;;;;;;;;;;;5010441;28;1606;-70
2021/03/01 15:38:15;;;;;;;;;;;;;;;;;;5008432;28;984;-69
2021/03/01 15:40:40;;;;;;;;;;;;;;;;;;5007679;28;1964;-70
2021/03/01 15:43:06;;;;;;;;;;;;;;;;;;5005613;28;1004;-69
2021/03/01 15:45:31;;;;;;;;;;;;;;;;;;5009800;28;1005;-68
2021/03/01 15:47:57;;;;;;;;;;;;;;;;;;4997118;28;1286;-68
2021/03/01 15:50:23;;;;;;;;;;;;;;;;;;5006738;28;1021;-72
2021/03/01 15:52:48;;;;;;;;;;;;;;;;;;5004398;28;1425;-75
2021/03/01 15:55:14;;;;;;;;;;;;;;;;;;5007920;28;1026;-72
2021/03/01 15:57:39;;;;;;;;;;;;;;;;;;4987843;28;1578;-71
2021/03/01 16:00:05;;;;;;;;;;;;;;;;;;4989603;28;1973;-70
2021/03/01 16:02:31;;;;;;;;;;;;;;;;;;4994166;28;1484;-66
2021/03/01 16:04:56;;;;;;;;;;;;;;;;;;5004875;28;1300;-71
2021/03/01 16:07:21;;;;;;;;;;;;;;;;;;4988175;28;843;-74
2021/03/01 16:09:47;;;;;;;;;;;;;;;;;;4992422;28;1392;-75
2021/03/01 16:12:12;;;;;;;;;;;;;;;;;;5007308;28;879;-74
2021/03/01 16:14:38;;;;;;;;;;;;;;;;;;4997095;28;1688;-75
2021/03/01 16:17:04;;;;;;;;;;;;;;;;;;5003818;28;1001;-74
2021/03/01 16:19:29;;;;;;;;;;;;;;;;;;5004601;28;1101;-74
2021/03/01 16:21:55;;;;;;;;;;;;;;;;;;4997616;28;1894;-74
2021/03/01 16:24:21;;;;;;;;;;;;;;;;;;5005357;28;1164;-73
2021/03/01 16:26:46;;;;;;;;;;;;;;;;;;5008687;28;966;-66
2021/03/01 16:29:11;;;;;;;;;;;;;;;;;;5000347;28;1207;-75
2021/03/01 16:31:37;;;;;;;;;;;;;;;;;;5005158;28;1679;-71
2021/03/01 16:34:03;;;;;;;;;;;;;;;;;;4970318;28;2184;-71
2021/03/01 16:36:29;;;;;;;;;;;;;;;;;;4958021;28;2178;-77
2021/03/01 16:38:55;;;;;;;;;;;;;;;;;;4992188;28;2688;-72
2021/03/01 16:41:22;;;;;;;;;;;;;;;;;;5002506;28;1906;-71
2021/03/01 16:43:47;;;;;;;;;;;;;;;;;;5001946;28;1132;-66
2021/03/01 16:46:16;;;;;;;;;;;;;;;;;;4990040;28;2046;-77
2021/03/01 16:48:44;;;;;;;;;;;;;;;;;;4996517;28;1166;-76
2021/03/01 16:51:10;;;;;;;;;;;;;;;;;;4979874;28;2251;-77
2021/03/01 16:53:36;;;;;;;;;;;;;;;;;;5006461;28;1046;-77
2021/03/01 16:56:01;;;;;;;;;;;;;;;;;;4996386;28;1097;-73
2021/03/01 16:58:28;;;;;;;;;;;;;;;;;;4998883;28;1228;-75
2021/03/01 17:00:53;;;;;;;;;;;;;;;;;;4971695;28;3028;-77
2021/03/01 17:03:19;;;;;;;;;;;;;;;;;;5008181;28;1158;-76